Time;durP1;ratioP1;P1;durP2;ratioP2;P2;SDS_P1;SDS_P2;PMS_P1;PMS_P2;Temp;Humidity;BMP_temperature;BMP_pressure;BME280_temperature;BME280_humidity;BME280_pressure;Samples;Min_cycle;Max_cycle;Signal;HPM_P1;HPM_P2
2022/11/01 00:01:56;;;;;;;12.23;2.45;;;14.10;99.90;;;;;;5016751;28;20054;-78
2022/11/01 00:04:23;;;;;;;6.35;2.00;;;14.10;99.90;;;;;;4999929;28;20037;-78
2022/11/01 00:06:49;;;;;;;7.45;2.45;;;14.10;99.90;;;;;;5017529;28;20037;-79
2022/11/01 00:09:15;;;;;;;8.70;2.00;;;14.10;99.90;;;;;;5017364;28;20045;-78
2022/11/01 00:11:43;;;;;;;8.38;2.17;;;16.30;99.90;;;;;;5016041;28;20026;-78
2022/11/01 00:14:13;;;;;;;5.82;2.35;;;16.80;99.90;;;;;;5016056;28;20480;-76
2022/11/01 00:16:39;;;;;;;9.48;2.30;;;14.60;99.90;;;;;;4997701;28;20040;-76
2022/11/01 00:19:04;;;;;;;7.10;1.83;;;14.20;99.90;;;;;;4999835;28;20025;-79
2022/11/01 00:21:30;;;;;;;7.40;2.75;;;14.20;99.90;;;;;;5017309;28;20022;-78
2022/11/01 00:23:55;;;;;;;6.55;2.10;;;14.20;99.90;;;;;;5017003;28;20026;-78
2022/11/01 00:26:22;;;;;;;8.40;2.35;;;14.30;99.90;;;;;;4999559;28;20018;-78
2022/11/01 00:28:48;;;;;;;11.60;2.40;;;14.30;99.90;;;;;;4999652;28;20028;-78
2022/11/01 00:31:15;;;;;;;7.70;2.78;;;14.30;99.90;;;;;;5016969;28;20168;-78
2022/11/01 00:33:41;;;;;;;7.40;2.13;;;14.30;99.90;;;;;;5016995;28;20056;-78
2022/11/01 00:36:07;;;;;;;8.60;2.20;;;14.40;99.90;;;;;;5016804;28;20033;-78
2022/11/01 00:38:34;;;;;;;12.52;2.53;;;14.40;99.90;;;;;;5016754;28;20038;-78
2022/11/01 00:41:02;;;;;;;12.70;1.88;;;14.40;99.90;;;;;;5017211;28;20141;-78
2022/11/01 00:43:32;;;;;;;6.63;2.03;;;14.40;99.90;;;;;;5016983;28;20109;-78
2022/11/01 00:45:58;;;;;;;6.88;2.22;;;14.50;99.90;;;;;;5016601;28;20022;-78
2022/11/01 00:48:23;;;;;;;7.63;2.08;;;14.50;99.90;;;;;;5016712;28;20028;-79
2022/11/01 00:50:49;;;;;;;8.20;2.28;;;14.50;99.90;;;;;;4997974;28;20389;-76
2022/11/01 00:53:15;;;;;;;10.55;2.28;;;14.50;99.90;;;;;;5015420;28;20049;-78
2022/11/01 00:55:41;;;;;;;6.13;1.83;;;15.20;99.90;;;;;;4999752;28;20022;-78
2022/11/01 00:58:07;;;;;;;6.00;2.25;;;14.70;99.90;;;;;;5016838;28;20128;-78
2022/11/01 01:00:33;;;;;;;7.90;2.05;;;14.50;99.90;;;;;;5016926;28;20117;-78
2022/11/01 01:02:58;;;;;;;8.85;2.72;;;14.60;99.90;;;;;;5016298;28;20026;-78
2022/11/01 01:05:24;;;;;;;8.80;2.13;;;14.70;99.90;;;;;;4997634;28;20022;-77
2022/11/01 01:07:49;;;;;;;9.32;2.22;;;14.60;99.90;;;;;;5015061;28;20022;-78
2022/11/01 01:10:15;;;;;;;13.40;3.15;;;14.50;99.90;;;;;;5015938;28;20030;-78
2022/11/01 01:12:40;;;;;;;7.05;2.60;;;14.60;99.90;;;;;;4998227;28;20022;-78
2022/11/01 01:15:07;;;;;;;11.10;2.40;;;14.60;99.90;;;;;;5016240;28;20502;-78
2022/11/01 01:17:32;;;;;;;10.02;2.03;;;14.60;99.90;;;;;;4998571;28;20499;-78
2022/11/01 01:19:58;;;;;;;10.75;2.65;;;14.60;99.90;;;;;;5016050;28;20061;-78
2022/11/01 01:22:24;;;;;;;6.35;1.83;;;14.50;99.90;;;;;;5016449;28;20041;-78
2022/11/01 01:24:50;;;;;;;5.70;2.08;;;14.60;99.90;;;;;;5016495;28;20030;-78
2022/11/01 01:27:16;;;;;;;10.27;3.03;;;14.60;99.90;;;;;;5015393;28;20033;-78
2022/11/01 01:29:43;;;;;;;14.05;2.05;;;14.60;99.90;;;;;;4997749;28;20025;-78
2022/11/01 01:32:13;;;;;;;8.38;2.05;;;14.60;99.90;;;;;;4997975;28;20028;-78
2022/11/01 01:34:39;;;;;;;6.78;1.95;;;14.50;99.90;;;;;;4998164;28;20029;-78
2022/11/01 01:37:06;;;;;;;11.10;2.17;;;14.60;99.90;;;;;;5016604;28;20025;-78
2022/11/01 01:39:32;;;;;;;8.80;2.50;;;14.60;99.90;;;;;;5016142;28;20054;-78
2022/11/01 01:41:57;;;;;;;6.65;2.22;;;14.50;99.90;;;;;;4997643;28;20037;-78
2022/11/01 01:44:45;;;;;;;8.88;2.15;;;14.60;99.90;;;;;;5015786;28;20524;-78
2022/11/01 01:47:15;;;;;;;7.63;1.50;;;14.50;99.90;;;;;;5015612;28;20037;-78
2022/11/01 01:49:42;;;;;;;13.25;2.85;;;14.60;99.90;;;;;;5015895;28;20064;-78
2022/11/01 01:52:08;;;;;;;8.15;1.70;;;14.60;99.90;;;;;;4997820;28;20445;-78
2022/11/01 01:54:34;;;;;;;5.15;1.65;;;14.60;99.90;;;;;;5015082;28;20425;-78
2022/11/01 01:57:00;;;;;;;6.20;1.40;;;14.70;99.90;;;;;;5013693;28;20033;-76
2022/11/01 01:59:26;;;;;;;6.55;1.85;;;14.70;99.90;;;;;;5013611;28;20045;-76
2022/11/01 02:01:52;;;;;;;7.72;1.90;;;14.70;99.90;;;;;;4996834;28;20022;-78
2022/11/01 02:04:24;;;;;;;12.02;2.13;;;14.70;99.90;;;;;;5015417;28;20033;-78
2022/11/01 02:06:50;;;;;;;3.28;1.35;;;15.00;99.90;;;;;;4997932;28;20022;-78
2022/11/01 02:09:17;;;;;;;4.75;1.90;;;14.80;99.90;;;;;;5015644;28;20028;-79
2022/11/01 02:11:42;;;;;;;9.07;1.13;;;15.60;99.90;;;;;;5014951;28;20022;-77
2022/11/01 02:14:08;;;;;;;4.95;1.27;;;14.90;99.90;;;;;;5013418;28;20489;-78
2022/11/01 02:16:59;;;;;;;8.00;1.50;;;15.10;99.90;;;;;;5015046;28;20029;-78
2022/11/01 02:20:06;;;;;;;5.35;1.00;;;15.10;99.90;;;;;;4999944;28;20034;-78
2022/11/01 02:22:45;;;;;;;7.43;1.52;;;15.40;99.90;;;;;;5017403;28;20136;-78
2022/11/01 02:25:36;;;;;;;8.45;1.60;;;15.40;99.90;;;;;;5017350;28;20040;-77
2022/11/01 02:28:21;;;;;;;4.25;2.05;;;15.50;99.90;;;;;;5017306;28;20022;-78
2022/11/01 02:31:07;;;;;;;7.50;1.52;;;15.70;99.90;;;;;;4999657;28;20022;-79
2022/11/01 02:33:41;;;;;;;8.90;1.42;;;15.70;99.90;;;;;;4999789;28;20050;-75
2022/11/01 02:36:15;;;;;;;7.22;1.35;;;15.80;99.90;;;;;;5017168;28;20072;-75
2022/11/01 02:38:52;;;;;;;5.18;1.20;;;15.80;99.90;;;;;;5017595;28;20029;-75
2022/11/01 02:41:28;;;;;;;4.25;0.88;;;15.80;99.90;;;;;;5017082;28;20515;-75
2022/11/01 02:44:01;;;;;;;5.63;1.00;;;15.90;99.90;;;;;;5016833;28;20087;-75
2022/11/01 02:49:18;;;;;;;4.18;0.90;;;16.00;99.90;;;;;;5017459;28;20503;-75
2022/11/01 02:51:45;;;;;;;6.68;1.05;;;16.00;99.90;;;;;;4999025;28;20071;-75
2022/11/01 02:54:40;;;;;;;6.68;1.33;;;16.00;99.90;;;;;;4999006;28;20022;-75
2022/11/01 02:57:39;;;;;;;3.58;1.33;;;16.00;99.90;;;;;;4988723;28;20037;-75
2022/11/01 03:00:21;;;;;;;7.28;1.08;;;16.00;99.90;;;;;;5016548;28;20030;-75
2022/11/01 03:02:50;;;;;;;11.00;1.92;;;16.00;99.90;;;;;;4998856;28;20018;-75
2022/11/01 03:05:27;;;;;;;7.65;0.65;;;16.00;99.90;;;;;;5016373;28;20036;-75
2022/11/01 03:07:59;;;;;;;3.20;0.68;;;16.00;99.90;;;;;;4998950;28;20014;-75
2022/11/01 03:10:36;;;;;;;4.38;0.90;;;16.00;99.90;;;;;;5016473;28;20436;-75
2022/11/01 03:13:35;;;;;;;7.18;1.17;;;15.90;99.90;;;;;;5016390;28;20072;-75
2022/11/01 03:16:23;;;;;;;2.70;0.80;;;15.90;99.90;;;;;;5003183;28;20042;-75
2022/11/01 03:19:23;;;;;;;9.52;1.48;;;15.90;99.90;;;;;;4998574;28;20125;-75
2022/11/01 03:22:28;;;;;;;5.10;0.52;;;17.30;99.90;;;;;;4998671;28;20393;-75
2022/11/01 03:25:40;;;;;;;3.58;0.28;;;15.90;99.90;;;;;;5016148;28;20507;-75
2022/11/01 03:28:26;;;;;;;3.35;0.08;;;16.00;99.90;;;;;;4998204;28;20473;-75
2022/11/01 03:30:56;;;;;;;5.57;0.85;;;16.10;99.90;;;;;;4998533;28;20021;-75
2022/11/01 03:33:24;;;;;;;9.50;1.15;;;16.10;99.90;;;;;;5015795;28;20113;-75
2022/11/01 03:35:54;;;;;;;4.10;0.75;;;16.10;99.90;;;;;;5016019;28;20034;-76
2022/11/01 03:38:25;;;;;;;1.55;0.30;;;16.00;99.90;;;;;;4998435;28;20389;-75
2022/11/01 03:41:00;;;;;;;2.05;0.00;;;17.70;99.90;;;;;;4998361;28;20117;-75
2022/11/01 03:43:29;;;;;;;2.50;0.10;;;15.90;99.90;;;;;;5015804;28;20076;-75
2022/11/01 03:45:54;;;;;;;1.65;0.30;;;16.20;99.90;;;;;;5015687;28;20033;-75
2022/11/01 03:48:20;;;;;;;2.60;0.25;;;16.00;99.90;;;;;;4998212;28;20021;-75
2022/11/01 03:50:51;;;;;;;2.17;0.03;;;17.70;99.90;;;;;;4998049;28;20080;-75
2022/11/01 03:53:17;;;;;;;1.00;0.20;;;15.80;99.90;;;;;;5015695;28;20029;-75
2022/11/01 03:55:43;;;;;;;1.85;0.00;;;15.70;99.90;;;;;;4997980;28;20420;-75
2022/11/01 03:58:09;;;;;;;2.10;0.15;;;15.60;99.90;;;;;;4998058;28;20030;-75
2022/11/01 04:00:40;;;;;;;2.75;0.20;;;15.50;99.90;;;;;;5015520;28;20036;-75
2022/11/01 04:03:06;;;;;;;5.32;0.20;;;15.40;99.90;;;;;;5015434;28;20026;-75
2022/11/01 04:05:33;;;;;;;2.55;0.60;;;15.30;99.90;;;;;;4997723;28;20034;-75
2022/11/01 04:07:59;;;;;;;0.57;0.13;;;15.30;99.90;;;;;;5015348;28;20022;-76
2022/11/01 04:10:26;;;;;;;0.00;0.00;;;15.30;99.90;;;;;;4997754;28;20026;-75
2022/11/01 04:12:52;;;;;;;0.28;0.20;;;15.30;99.90;;;;;;5015259;28;20026;-76
2022/11/01 04:21:23;;;;;;;1.95;0.03;;;15.10;99.90;;;;;;5015726;28;20044;-75
2022/11/01 04:23:49;;;;;;;2.22;0.00;;;15.00;99.90;;;;;;4997425;28;20432;-75
2022/11/01 04:26:17;;;;;;;0.55;0.00;;;15.00;99.90;;;;;;4997270;28;20022;-76
2022/11/01 04:28:55;;;;;;;1.90;0.00;;;14.90;99.90;;;;;;4997546;28;20105;-75
2022/11/01 04:31:29;;;;;;;3.60;0.20;;;14.90;99.90;;;;;;5015030;28;20025;-76
2022/11/01 04:33:57;;;;;;;1.80;0.00;;;14.90;99.90;;;;;;4997146;28;20105;-76
2022/11/01 04:36:23;;;;;;;0.80;0.30;;;14.90;99.90;;;;;;5015014;28;20032;-77
2022/11/01 04:38:50;;;;;;;0.03;0.00;;;15.20;99.90;;;;;;4996445;28;20117;-77
2022/11/01 04:41:17;;;;;;;2.83;0.10;;;14.80;99.90;;;;;;5014840;28;20388;-77
2022/11/01 04:43:43;;;;;;;2.45;0.00;;;14.70;99.90;;;;;;4997263;28;20026;-77
2022/11/01 04:46:08;;;;;;;0.43;0.00;;;14.70;99.90;;;;;;5014735;28;20076;-77
2022/11/01 04:48:34;;;;;;;2.28;0.10;;;14.60;99.90;;;;;;5014731;28;20018;-77
2022/11/01 04:51:01;;;;;;;2.33;0.10;;;14.50;99.90;;;;;;4996892;28;20060;-77
2022/11/01 04:53:28;;;;;;;1.63;0.30;;;14.50;99.90;;;;;;4996923;28;20527;-77
2022/11/01 04:55:53;;;;;;;0.30;0.00;;;14.50;99.90;;;;;;4997043;28;20029;-77
2022/11/01 04:58:19;;;;;;;1.45;0.00;;;14.50;99.90;;;;;;5014476;28;20037;-77
2022/11/01 05:00:45;;;;;;;0.30;0.10;;;14.40;99.90;;;;;;5014450;28;20025;-77
2022/11/01 05:03:11;;;;;;;0.50;0.00;;;14.30;99.90;;;;;;5014424;28;20022;-77
2022/11/01 05:05:37;;;;;;;1.65;0.00;;;14.30;99.90;;;;;;5014315;28;20037;-77
2022/11/01 05:08:06;;;;;;;3.22;0.00;;;14.20;99.90;;;;;;5015019;28;20104;-77
2022/11/01 05:10:32;;;;;;;2.97;0.43;;;14.10;99.90;;;;;;4996737;28;20064;-77
2022/11/01 05:12:58;;;;;;;2.35;0.00;;;14.10;99.90;;;;;;4996528;28;20058;-77
2022/11/01 05:15:23;;;;;;;2.30;0.00;;;14.10;99.90;;;;;;4996720;28;20495;-77
2022/11/01 05:17:49;;;;;;;1.02;0.15;;;14.00;99.90;;;;;;5014333;28;20080;-77
2022/11/01 05:20:15;;;;;;;3.67;0.00;;;14.00;99.90;;;;;;5014201;28;20535;-77
2022/11/01 05:22:40;;;;;;;3.60;0.32;;;13.90;99.90;;;;;;5014155;28;20477;-77
2022/11/01 05:25:08;;;;;;;5.97;0.00;;;13.90;99.90;;;;;;4996698;28;20472;-77
2022/11/01 05:27:34;;;;;;;3.90;0.03;;;13.90;99.90;;;;;;5014012;28;20026;-77
2022/11/01 05:30:00;;;;;;;6.00;0.00;;;13.90;99.90;;;;;;5013935;28;20445;-77
2022/11/01 05:32:26;;;;;;;2.35;0.25;;;13.90;99.90;;;;;;5013748;28;20392;-77
2022/11/01 05:34:52;;;;;;;4.07;0.10;;;13.90;99.90;;;;;;5013891;28;20022;-77
2022/11/01 05:37:17;;;;;;;7.20;0.17;;;13.90;99.90;;;;;;4996238;28;20029;-76
2022/11/01 05:39:43;;;;;;;4.88;0.20;;;13.90;99.90;;;;;;5013963;28;20153;-77
2022/11/01 05:42:08;;;;;;;1.60;0.00;;;14.80;99.90;;;;;;4996197;28;20080;-76
2022/11/01 05:44:34;;;;;;;4.95;0.10;;;13.80;99.90;;;;;;4996187;28;20513;-77
2022/11/01 05:47:05;;;;;;;3.33;0.20;;;13.90;99.90;;;;;;4996173;28;20022;-77
2022/11/01 05:49:31;;;;;;;7.70;0.10;;;13.80;99.90;;;;;;5013708;28;20021;-77
2022/11/01 05:51:57;;;;;;;3.78;0.00;;;13.80;99.90;;;;;;5013721;28;20137;-77
2022/11/01 05:54:22;;;;;;;2.28;0.00;;;13.70;99.90;;;;;;4996314;28;20513;-77
2022/11/01 05:56:48;;;;;;;5.95;0.00;;;15.00;99.90;;;;;;5013694;28;20038;-77
2022/11/01 05:59:14;;;;;;;2.85;0.10;;;13.70;99.90;;;;;;5013660;28;20500;-77
2022/11/01 06:01:40;;;;;;;4.82;0.15;;;13.60;99.90;;;;;;5013863;28;20030;-77
2022/11/01 06:04:06;;;;;;;6.10;0.00;;;13.60;99.90;;;;;;5013484;28;20105;-78
2022/11/01 06:06:32;;;;;;;2.38;0.57;;;13.50;99.90;;;;;;4995968;28;20125;-77
2022/11/01 06:08:58;;;;;;;2.03;0.13;;;13.60;99.90;;;;;;5013636;28;20026;-77
2022/11/01 06:11:25;;;;;;;2.30;0.00;;;14.80;99.90;;;;;;5014059;28;20122;-77
2022/11/01 06:13:58;;;;;;;2.72;0.25;;;13.60;99.90;;;;;;5013552;28;20057;-78
2022/11/01 06:16:27;;;;;;;5.03;0.00;;;13.70;99.90;;;;;;4995876;28;20116;-77
2022/11/01 06:18:53;;;;;;;2.42;0.00;;;13.70;99.90;;;;;;5013486;28;20054;-77
2022/11/01 06:21:21;;;;;;;1.80;0.10;;;13.60;99.90;;;;;;4995984;28;20022;-77
2022/11/01 06:23:49;;;;;;;5.88;0.00;;;13.60;99.90;;;;;;4996081;28;20030;-77
2022/11/01 06:26:15;;;;;;;7.30;0.40;;;13.60;99.90;;;;;;4996533;28;20369;-80
2022/11/01 06:28:41;;;;;;;6.10;0.40;;;13.50;99.90;;;;;;5016343;28;20033;-78
2022/11/01 06:31:06;;;;;;;7.50;0.20;;;13.50;99.90;;;;;;4996555;28;20022;-78
2022/11/01 06:33:32;;;;;;;7.20;0.00;;;13.50;99.90;;;;;;5013667;28;20452;-77
2022/11/01 06:35:58;;;;;;;5.18;0.00;;;13.50;99.90;;;;;;4996093;28;20029;-77
2022/11/01 06:38:24;;;;;;;8.25;0.65;;;13.40;99.90;;;;;;4995740;28;20022;-78
2022/11/01 06:40:49;;;;;;;4.97;0.25;;;13.50;99.90;;;;;;4995806;28;20477;-77
2022/11/01 06:43:15;;;;;;;3.75;0.50;;;13.40;99.90;;;;;;4995703;28;20040;-77
2022/11/01 06:45:41;;;;;;;11.68;1.55;;;13.40;99.90;;;;;;5013317;28;20469;-77
2022/11/01 06:48:06;;;;;;;7.03;0.93;;;13.40;99.90;;;;;;5013361;28;20026;-78
2022/11/01 06:50:32;;;;;;;4.85;0.20;;;13.40;99.90;;;;;;4995775;28;20022;-78
2022/11/01 06:52:58;;;;;;;10.57;0.15;;;13.40;99.90;;;;;;5013527;28;20022;-75
2022/11/01 06:55:25;;;;;;;12.30;0.10;;;13.30;99.90;;;;;;5012891;28;20041;-74
2022/11/01 06:57:56;;;;;;;8.60;0.45;;;13.30;99.90;;;;;;5012837;28;20030;-74
2022/11/01 07:00:27;;;;;;;7.65;0.28;;;13.20;99.90;;;;;;4995375;28;20022;-75
2022/11/01 07:03:01;;;;;;;7.53;0.25;;;13.20;99.90;;;;;;4997219;28;20148;-75
2022/11/01 07:05:28;;;;;;;7.35;0.75;;;13.20;99.90;;;;;;5018728;28;20025;-80
2022/11/01 07:07:54;;;;;;;1.38;0.00;;;;;;;;;;5002928;28;20156;-80
2022/11/01 07:10:20;;;;;;;6.90;0.55;;;13.20;99.90;;;;;;5019815;28;20029;-80
2022/11/01 07:12:49;;;;;;;7.30;0.38;;;13.10;99.90;;;;;;5002910;28;20076;-79
2022/11/01 07:15:14;;;;;;;5.93;0.32;;;13.20;99.90;;;;;;5002353;28;20072;-79
2022/11/01 07:17:40;;;;;;;9.60;0.65;;;13.70;99.90;;;;;;5021252;28;20022;-80
2022/11/01 07:20:07;;;;;;;10.90;2.65;;;13.20;99.90;;;;;;5003368;28;20085;-80
2022/11/01 07:22:32;;;;;;;8.93;0.45;;;13.10;99.90;;;;;;5002550;28;20080;-80
2022/11/01 07:24:58;;;;;;;3.72;0.43;;;13.10;99.90;;;;;;5021227;28;20026;-80
2022/11/01 07:27:24;;;;;;;7.18;0.52;;;;;;;;;;5020577;28;20057;-80
2022/11/01 07:29:50;;;;;;;9.73;0.52;;;13.10;99.90;;;;;;5002914;28;20080;-80
2022/11/01 07:32:16;;;;;;;6.35;0.38;;;;;;;;;;5002800;28;20029;-80
2022/11/01 07:34:42;;;;;;;5.95;0.00;;;13.20;99.90;;;;;;5002682;28;20405;-80
2022/11/01 07:37:07;;;;;;;7.55;0.32;;;13.20;99.90;;;;;;5002927;28;20072;-80
2022/11/01 07:39:33;;;;;;;6.18;0.25;;;13.20;99.90;;;;;;5003114;28;20026;-79
2022/11/01 07:41:58;;;;;;;5.70;0.10;;;13.30;99.90;;;;;;5002406;28;20477;-80
2022/11/01 07:44:24;;;;;;;10.57;0.22;;;13.30;99.90;;;;;;5002613;28;20018;-80
2022/11/01 07:46:49;;;;;;;5.05;0.13;;;13.30;99.90;;;;;;5020279;28;20022;-80
2022/11/01 07:49:15;;;;;;;8.10;0.40;;;13.30;99.90;;;;;;5002154;28;20026;-79
2022/11/01 07:51:40;;;;;;;6.57;0.10;;;13.30;99.90;;;;;;5001354;28;20049;-80
2022/11/01 07:54:06;;;;;;;9.65;0.88;;;13.30;99.90;;;;;;5001891;28;20022;-79
2022/11/01 07:56:32;;;;;;;9.98;0.68;;;14.20;99.90;;;;;;5019715;28;20029;-80
2022/11/01 07:58:57;;;;;;;31.85;5.38;;;13.40;99.90;;;;;;5002281;28;20034;-80
2022/11/01 08:01:23;;;;;;;7.00;0.45;;;13.40;99.90;;;;;;5002487;28;20026;-80
2022/11/01 08:03:49;;;;;;;1.88;0.10;;;13.40;99.90;;;;;;5002706;28;20022;-80
2022/11/01 08:06:14;;;;;;;12.75;1.20;;;13.40;99.90;;;;;;5002194;28;20156;-80
2022/11/01 08:08:40;;;;;;;6.75;0.10;;;13.50;99.90;;;;;;5002234;28;20080;-79
2022/11/01 08:11:06;;;;;;;11.35;0.52;;;13.50;99.90;;;;;;5020922;28;20081;-80
2022/11/01 08:13:31;;;;;;;6.80;0.60;;;13.50;99.90;;;;;;5019814;28;20052;-80
2022/11/01 08:16:00;;;;;;;7.22;0.38;;;13.50;99.90;;;;;;5002612;28;20073;-80
2022/11/01 08:18:25;;;;;;;12.65;0.88;;;13.50;99.90;;;;;;5004559;28;20029;-79
2022/11/01 08:20:51;;;;;;;13.32;1.35;;;13.60;99.90;;;;;;5005269;28;20021;-80
2022/11/01 08:23:19;;;;;;;4.70;0.17;;;13.60;99.90;;;;;;5002819;28;20069;-80
2022/11/01 08:25:45;;;;;;;10.52;0.10;;;13.60;99.90;;;;;;5002911;28;20026;-80
2022/11/01 08:28:14;;;;;;;6.97;0.73;;;13.60;99.90;;;;;;5002867;28;20056;-80
2022/11/01 08:30:41;;;;;;;9.70;0.90;;;13.70;99.90;;;;;;5003748;28;20121;-80
2022/11/01 08:33:06;;;;;;;10.05;0.93;;;13.70;99.90;;;;;;5019770;28;20021;-80
2022/11/01 08:35:32;;;;;;;7.75;1.15;;;13.70;99.90;;;;;;5002546;28;20520;-80
2022/11/01 08:37:59;;;;;;;21.17;1.30;;;13.70;99.90;;;;;;5020444;28;20068;-80
2022/11/01 08:40:27;;;;;;;16.08;0.20;;;13.80;99.90;;;;;;5021024;28;20535;-80
2022/11/01 08:42:52;;;;;;;7.57;0.82;;;13.80;99.90;;;;;;5019580;28;20091;-80
2022/11/01 08:45:18;;;;;;;7.18;0.77;;;13.80;99.90;;;;;;5019585;28;20057;-79
2022/11/01 08:47:44;;;;;;;11.88;0.10;;;13.90;99.90;;;;;;5019889;28;20022;-80
2022/11/01 08:50:12;;;;;;;6.97;0.43;;;13.90;99.90;;;;;;5020708;28;20025;-80
2022/11/01 08:52:38;;;;;;;3.57;0.20;;;13.90;99.90;;;;;;5020370;28;20145;-80
2022/11/01 08:55:05;;;;;;;18.02;0.40;;;14.20;99.90;;;;;;5002497;28;20033;-80
2022/11/01 08:57:30;;;;;;;12.27;0.52;;;13.90;99.90;;;;;;5020062;28;20026;-80
2022/11/01 08:59:56;;;;;;;6.68;0.38;;;14.40;99.90;;;;;;5002490;28;20069;-80
2022/11/01 09:02:22;;;;;;;9.25;0.90;;;14.00;99.90;;;;;;5002625;28;20018;-80
2022/11/01 09:04:47;;;;;;;6.47;0.38;;;13.90;99.90;;;;;;5019698;28;20077;-80
2022/11/01 09:07:13;;;;;;;17.65;0.32;;;14.00;99.90;;;;;;5020516;28;20108;-80
2022/11/01 09:09:38;;;;;;;6.03;0.75;;;13.90;99.90;;;;;;5021443;28;20109;-80
2022/11/01 09:12:05;;;;;;;9.48;0.28;;;13.90;99.90;;;;;;5002497;28;20396;-80
2022/11/01 09:14:30;;;;;;;8.85;0.50;;;13.80;99.90;;;;;;5003097;28;20022;-80
2022/11/01 09:16:56;;;;;;;9.98;0.45;;;13.70;99.90;;;;;;5019873;28;20069;-79
2022/11/01 09:19:21;;;;;;;14.95;0.17;;;14.00;99.90;;;;;;5002718;28;20101;-80
2022/11/01 09:21:47;;;;;;;11.25;0.13;;;13.80;99.90;;;;;;5003555;28;20025;-80
2022/11/01 09:24:15;;;;;;;6.43;0.63;;;13.80;99.90;;;;;;5020048;28;20048;-80
2022/11/01 09:26:41;;;;;;;2.88;0.28;;;13.80;99.90;;;;;;5020154;28;20026;-80
2022/11/01 09:29:07;;;;;;;6.43;0.13;;;13.90;99.90;;;;;;5002615;28;20473;-80
2022/11/01 09:31:33;;;;;;;5.80;0.30;;;14.00;99.90;;;;;;5002403;28;20025;-80
2022/11/01 09:33:59;;;;;;;13.90;0.35;;;14.00;99.90;;;;;;5002324;28;20018;-80
2022/11/01 09:36:27;;;;;;;12.20;0.57;;;14.30;99.90;;;;;;5001423;28;20585;-79
2022/11/01 09:38:53;;;;;;;7.03;0.50;;;14.10;99.90;;;;;;5000684;28;20374;-80
2022/11/01 09:41:44;;;;;;;11.73;0.80;;;14.40;99.90;;;;;;5003222;28;20068;-80
2022/11/01 09:44:15;;;;;;;8.80;0.25;;;14.40;99.90;;;;;;5002855;28;20049;-80
2022/11/01 09:47:04;;;;;;;8.32;0.20;;;14.50;99.90;;;;;;5002546;28;20382;-80
2022/11/01 09:49:36;;;;;;;5.97;0.30;;;14.50;99.90;;;;;;5020229;28;20018;-80
2022/11/01 09:52:04;;;;;;;7.00;0.10;;;14.60;99.90;;;;;;5002681;28;20036;-80
2022/11/01 09:54:30;;;;;;;13.85;0.85;;;14.70;99.90;;;;;;5020331;28;20041;-80
2022/11/01 09:57:27;;;;;;;9.90;0.80;;;14.80;99.90;;;;;;5002494;28;20071;-80
2022/11/01 10:00:05;;;;;;;12.20;1.38;;;14.80;99.90;;;;;;5002513;28;20037;-80
2022/11/01 10:02:49;;;;;;;18.40;1.60;;;14.80;99.90;;;;;;5020730;28;20080;-80
2022/11/01 10:05:30;;;;;;;5.65;0.30;;;14.80;99.90;;;;;;5002073;28;20022;-80
2022/11/01 10:08:21;;;;;;;19.85;1.92;;;14.80;99.90;;;;;;5002094;28;20033;-80
2022/11/01 10:10:57;;;;;;;15.68;1.52;;;14.80;99.90;;;;;;5020273;28;20025;-80
2022/11/01 10:13:56;;;;;;;19.35;1.63;;;14.80;99.90;;;;;;5018271;28;20020;-80
2022/11/01 10:16:50;;;;;;;7.47;0.40;;;14.80;99.90;;;;;;5021013;28;20025;-80
2022/11/01 10:19:17;;;;;;;8.25;0.30;;;14.90;99.90;;;;;;5018562;28;20041;-78
2022/11/01 10:21:59;;;;;;;12.85;0.57;;;15.00;99.90;;;;;;4999335;28;20113;-80
2022/11/01 10:24:35;;;;;;;10.30;0.38;;;15.00;99.90;;;;;;5016797;28;20370;-77
2022/11/01 10:27:28;;;;;;;7.53;0.50;;;15.10;99.90;;;;;;5000249;28;20124;-78
2022/11/01 10:30:01;;;;;;;12.43;0.65;;;15.10;99.90;;;;;;4997005;28;20022;-78
2022/11/01 10:32:49;;;;;;;16.10;1.13;;;15.10;99.90;;;;;;5000308;28;20050;-78
2022/11/01 10:35:17;;;;;;;10.55;0.15;;;15.10;99.90;;;;;;5000211;28;20110;-80
2022/11/01 10:37:56;;;;;;;7.72;0.63;;;15.20;99.90;;;;;;5021439;28;20504;-78
2022/11/01 10:40:38;;;;;;;7.38;0.47;;;15.30;99.90;;;;;;5020985;28;20108;-78
2022/11/01 10:43:13;;;;;;;11.98;0.52;;;15.30;99.90;;;;;;5000795;28;20380;-79
2022/11/01 10:45:43;;;;;;;5.28;0.00;;;15.40;99.90;;;;;;5001294;28;20021;-79
2022/11/01 10:48:20;;;;;;;9.45;0.38;;;15.40;99.90;;;;;;5018373;28;20068;-79
2022/11/01 10:50:47;;;;;;;9.98;0.52;;;15.40;99.90;;;;;;5025994;22;20044;-74
2022/11/01 10:53:13;;;;;;;8.27;0.30;;;15.40;99.90;;;;;;5017485;28;20430;-74
2022/11/01 10:55:47;;;;;;;4.60;0.22;;;15.50;99.90;;;;;;5016816;28;20469;-74
2022/11/01 10:58:37;;;;;;;7.05;0.88;;;15.40;99.90;;;;;;4999155;28;20113;-74
2022/11/01 11:01:08;;;;;;;3.88;0.40;;;15.40;99.90;;;;;;5016734;28;20068;-74
2022/11/01 11:03:36;;;;;;;7.07;0.00;;;15.30;99.90;;;;;;5016554;28;20052;-75
2022/11/01 11:06:07;;;;;;;9.43;0.63;;;15.50;99.90;;;;;;5016595;28;20065;-74
2022/11/01 11:08:35;;;;;;;9.70;0.50;;;15.60;99.90;;;;;;5016800;28;20053;-74
2022/11/01 11:11:10;;;;;;;7.67;0.60;;;15.70;99.90;;;;;;5017079;28;20382;-74
2022/11/01 11:13:38;;;;;;;3.72;0.17;;;15.70;99.90;;;;;;5016369;28;20033;-75
2022/11/01 11:16:04;;;;;;;22.58;0.30;;;15.70;99.90;;;;;;5016399;28;20451;-74
2022/11/01 11:18:37;;;;;;;6.70;0.35;;;15.80;99.90;;;;;;4998741;28;20026;-74
2022/11/01 11:21:08;;;;;;;8.32;1.05;;;15.80;99.90;;;;;;4998725;28;20030;-75
2022/11/01 11:23:40;;;;;;;6.63;0.32;;;15.90;99.90;;;;;;5016235;28;20468;-74
2022/11/01 11:26:08;;;;;;;9.18;0.40;;;15.90;99.90;;;;;;5016156;28;20053;-74
2022/11/01 11:28:41;;;;;;;4.50;0.20;;;16.00;99.90;;;;;;4998646;28;20014;-74
2022/11/01 11:31:20;;;;;;;5.32;0.47;;;16.30;99.90;;;;;;5016186;28;20049;-75
2022/11/01 11:34:14;;;;;;;8.85;0.30;;;16.10;99.90;;;;;;4999044;28;20026;-74
2022/11/01 11:36:43;;;;;;;7.15;0.38;;;16.10;99.90;;;;;;5016028;28;20033;-74
2022/11/01 11:39:27;;;;;;;9.68;0.52;;;16.10;99.90;;;;;;5015933;28;20423;-74
2022/11/01 11:41:52;;;;;;;10.65;1.05;;;16.00;99.90;;;;;;4998261;28;20033;-74
2022/11/01 11:44:38;;;;;;;5.60;0.43;;;16.10;99.90;;;;;;5015785;28;20029;-75
2022/11/01 11:47:04;;;;;;;7.10;0.60;;;16.20;99.90;;;;;;5015761;28;20537;-75
2022/11/01 11:49:31;;;;;;;11.68;0.22;;;16.40;99.90;;;;;;5015945;28;20056;-74
2022/11/01 11:51:57;;;;;;;3.70;0.30;;;16.60;99.90;;;;;;5015623;28;20030;-74
2022/11/01 11:54:30;;;;;;;5.55;0.60;;;16.60;99.90;;;;;;4997996;28;20018;-74
2022/11/01 11:57:10;;;;;;;6.45;0.08;;;16.60;99.90;;;;;;5015670;28;20050;-74
2022/11/01 11:59:37;;;;;;;5.85;0.60;;;16.60;99.90;;;;;;5015558;28;20456;-74
2022/11/01 12:02:05;;;;;;;4.00;0.40;;;16.80;99.90;;;;;;5015559;28;20034;-74
2022/11/01 12:04:45;;;;;;;3.08;0.55;;;16.70;99.90;;;;;;5015457;28;20022;-74
2022/11/01 12:07:28;;;;;;;6.75;0.22;;;16.90;99.90;;;;;;4997834;28;20033;-74
2022/11/01 12:09:55;;;;;;;5.95;0.47;;;17.00;99.90;;;;;;5015264;28;20104;-74
2022/11/01 12:12:23;;;;;;;5.43;0.00;;;17.20;99.90;;;;;;5015372;28;20018;-75
2022/11/01 12:14:49;;;;;;;5.63;0.10;;;17.20;99.90;;;;;;4997672;28;20030;-74
2022/11/01 12:17:32;;;;;;;9.63;0.20;;;17.20;99.90;;;;;;5015283;28;20030;-74
2022/11/01 12:20:06;;;;;;;6.63;0.30;;;17.30;99.90;;;;;;4997672;28;20061;-74
2022/11/01 12:22:35;;;;;;;6.85;0.40;;;17.40;99.90;;;;;;4998482;28;20037;-74
2022/11/01 12:25:04;;;;;;;;;;;17.40;99.90;;;;;;5015511;28;20109;-74
2022/11/01 12:27:32;;;;;;;4.25;0.00;;;17.50;99.90;;;;;;4997339;28;20361;-76
2022/11/01 12:30:07;;;;;;;6.43;0.10;;;17.60;99.90;;;;;;5015019;28;20022;-74
2022/11/01 12:32:57;;;;;;;7.78;0.20;;;17.50;99.90;;;;;;5014883;28;20033;-74
2022/11/01 12:35:28;;;;;;;10.90;1.10;;;17.50;99.90;;;;;;4985317;28;20061;-74
2022/11/01 12:38:28;;;;;;;7.20;0.47;;;17.50;99.90;;;;;;5015506;28;20022;-74
2022/11/01 12:40:55;;;;;;;8.30;0.77;;;17.50;99.90;;;;;;4997244;28;20033;-74
2022/11/01 12:43:56;;;;;;;5.32;0.00;;;17.70;99.90;;;;;;5014985;28;20049;-75
2022/11/01 12:46:34;;;;;;;15.10;1.98;;;17.70;99.90;;;;;;4977183;28;20038;-74
2022/11/01 12:49:09;;;;;;;3.00;0.00;;;17.60;99.90;;;;;;5014836;28;20026;-74
2022/11/01 12:51:40;;;;;;;8.95;0.43;;;18.00;99.90;;;;;;5014594;28;20068;-76
2022/11/01 12:54:22;;;;;;;4.88;0.17;;;18.10;99.90;;;;;;4996945;28;20022;-74
2022/11/01 12:56:47;;;;;;;5.85;0.10;;;18.00;99.90;;;;;;4996978;28;20034;-74
2022/11/01 12:59:21;;;;;;;5.05;0.10;;;18.00;99.90;;;;;;4996529;28;20502;-74
2022/11/01 13:02:09;;;;;;;7.63;0.25;;;18.10;99.90;;;;;;4996643;28;20025;-74
2022/11/01 13:04:42;;;;;;;4.80;0.88;;;18.10;99.90;;;;;;5014476;28;20113;-74
2022/11/01 13:07:26;;;;;;;4.82;0.57;;;18.10;99.90;;;;;;4996628;28;20116;-74
2022/11/01 13:10:16;;;;;;;14.63;0.85;;;18.20;99.90;;;;;;4996604;28;20022;-74
2022/11/01 13:12:53;;;;;;;3.95;0.00;;;18.30;99.90;;;;;;5014232;28;20056;-74